Dinard-Pleurtuit-Saint-Malo Airport

LFRD · Ille-et-Vilaine, Bretagna, Francia

Storia di METAR LFRD · Dinard-Pleurtuit-Saint-Malo Airport

Di seguito sono riportati i METAR degli ultimi giorni. Seleziona un anno per sfogliare i METAR più vecchi, dall'anno 2007 in poi.

24 luglio 2024

Tempo Codice Tempo meteorologico Temp. Vista Base nuvolosa Vento METAR/SPECI
17:00
M
20 °C 10 km+ 2.300 ft 020° 020° 6 kt METAR LFRD 241500Z AUTO 02006KT 340V070 9999 BKN023 OVC028 20/14 Q1021 NOSIG
16:30
M
19 °C 10 km+ 2.200 ft 020° 020° 4 kt METAR LFRD 241430Z AUTO 02004KT 320V080 9999 BKN022 OVC036 19/14 Q1022 NOSIG
16:00
V
19 °C 10 km+ 3.400 ft 020° 020° 6 kt METAR LFRD 241400Z AUTO 02006KT 330V040 9999 OVC034 19/15 Q1022 NOSIG
15:30
V
18 °C 10 km+ 3.100 ft 010° 010° 7 kt METAR LFRD 241330Z AUTO 01007KT 9999 SCT020 OVC031 18/15 Q1022 NOSIG
15:00
M
18 °C 10 km+ 2.200 ft 360° 360° 7 kt METAR LFRD 241300Z AUTO 36007KT 9999 OVC022 18/14 Q1022 NOSIG
14:30
M
18 °C 10 km+ 1.900 ft Var Var 3 kt METAR LFRD 241230Z AUTO VRB03KT 9999 BKN019 OVC033 18/15 Q1022 NOSIG
14:00
V
18 °C 10 km+ 3.200 ft 020° 020° 3 kt METAR LFRD 241200Z AUTO 02003KT 310V060 9999 SCT023 OVC032 18/14 Q1022 NOSIG
13:30
M
18 °C 10 km+ 2.500 ft 330° 330° 5 kt METAR LFRD 241130Z AUTO 33005KT 280V360 9999 OVC025 18/14 Q1023 NOSIG
13:00
M
19 °C 10 km+ 1.900 ft Var Var 4 kt METAR LFRD 241100Z AUTO VRB04KT 9999 BKN019 OVC033 19/14 Q1023 NOSIG
12:30
V
19 °C 10 km+ 3.100 ft 310° 310° 5 kt METAR LFRD 241030Z AUTO 31005KT 260V350 9999 OVC031 19/15 Q1023 NOSIG
12:00
M
18 °C 10 km+ 2.800 ft 300° 300° 4 kt METAR LFRD 241000Z AUTO 30004KT 260V340 9999 FEW015 OVC028 18/14 Q1023 NOSIG
11:30
M
17 °C 8 km 2.600 ft 290° 290° 5 kt METAR LFRD 240930Z AUTO 29005KT 8000 FEW013 OVC026 17/14 Q1023 NOSIG
11:00
M
17 °C 10 km+ 2.600 ft 290° 290° 6 kt METAR LFRD 240900Z AUTO 29006KT 9999 FEW008 OVC026 17/15 Q1023 NOSIG
10:30
M
16 °C 10 km+ 2.700 ft 260° 260° 4 kt METAR LFRD 240830Z AUTO 26004KT 9999 FEW008 OVC027 16/15 Q1023 NOSIG
10:00
M
15 °C 10 km+ 2.600 ft Var Var 3 kt METAR LFRD 240800Z AUTO VRB03KT 9999 FEW006 OVC026 15/15 Q1023 NOSIG
09:30
M
15 °C 10 km+ 2.700 ft 240° 240° 4 kt METAR LFRD 240730Z AUTO 24004KT 9999 OVC027 15/15 Q1023 NOSIG
09:00
M
15 °C 10 km+ 2.700 ft 220° 220° 4 kt METAR LFRD 240700Z AUTO 22004KT 9999 OVC027 15/14 Q1023 NOSIG
08:30
M
14 °C 10 km+ 2.800 ft 220° 220° 4 kt METAR LFRD 240630Z AUTO 22004KT 9999 FEW013 OVC028 14/14 Q1023 NOSIG
08:00
M
14 °C 9 km 2.400 ft 230° 230° 4 kt METAR LFRD 240600Z AUTO 23004KT 9000 FEW011 OVC024 14/14 Q1023 TEMPO 4000 BR
07:30
M
14 °C 9 km 2.600 ft 230° 230° 3 kt METAR LFRD 240530Z AUTO 23003KT 9000 FEW015 OVC026 14/14 Q1023 TEMPO 4000 BR
07:00
M
13 °C 9 km 2.500 ft 220° 220° 4 kt METAR LFRD 240500Z AUTO 22004KT 9000 OVC025 13/13 Q1023 NOSIG
06:30
M
12 °C 8 km 2.400 ft 210° 210° 3 kt METAR LFRD 240430Z AUTO 21003KT 8000 BKN024 12/12 Q1023 TEMPO 0800 FG
06:00
M
12 °C 6 km - 210° 210° 3 kt METAR LFRD 240400Z AUTO 21003KT 6000 FEW012 SCT024 12/12 Q1023 TEMPO 0800 FG
05:30
L
11 °C 900 m - 220° 220° 3 kt METAR LFRD 240330Z AUTO 22003KT 1200 0900 R35/1900D BCFG NSC 11/11 Q1023 TEMPO 3000 BR BKN008
05:00
I
13 °C 2,2 km - Var Var 3 kt METAR LFRD 240300Z AUTO VRB03KT 5000 2200 R35/1100D BR NSC 13/12 Q1023 TEMPO BKN008
04:30
I
12 °C 3 km - 250° 250° 3 kt METAR LFRD 240230Z AUTO 25003KT 3000 BR NSC 12/12 Q1023 TEMPO BKN008
04:00
I
12 °C 2,3 km - 210° 210° 2 kt METAR LFRD 240200Z AUTO 21002KT 2300 BR NSC 12/12 Q1023 TEMPO 3000 BR BKN008
03:30
V
13 °C 10 km+ - Var Var 1 kt METAR LFRD 240130Z AUTO VRB01KT 9999 SCT023 13/13 Q1023 TEMPO 3000 BR BKN008
03:00
V
13 °C 10 km+ - 220° 220° 3 kt METAR LFRD 240100Z AUTO 22003KT 9999 FEW016 13/13 Q1024 TEMPO 3000 BR BKN008
02:30
V
13 °C 9 km - 210° 210° 3 kt METAR LFRD 240030Z AUTO 21003KT 9000 FEW015 13/12 Q1024 TEMPO 3000 BR BKN008
02:00
V
13 °C 10 km+ - Var Var 2 kt METAR LFRD 240000Z AUTO VRB02KT 9999 FEW024 13/13 Q1024 NOSIG
01:30
V
13 °C 10 km+ - Var Var 2 kt METAR LFRD 232330Z AUTO VRB02KT CAVOK 13/13 Q1024 NOSIG
01:00
V
13 °C 10 km+ - 250° 250° 3 kt METAR LFRD 232300Z AUTO 25003KT 9999 FEW014 13/13 Q1024 NOSIG
00:30
V
14 °C 10 km+ - 310° 310° 4 kt METAR LFRD 232230Z AUTO 31004KT 9999 FEW014 14/13 Q1024 NOSIG
00:00
V
14 °C 10 km+ - 310° 310° 4 kt METAR LFRD 232200Z AUTO 31004KT 9999 FEW016 14/13 Q1024 NOSIG

23 luglio 2024

Tempo Codice Tempo meteorologico Temp. Vista Base nuvolosa Vento METAR/SPECI
23:30
V
14 °C 10 km+ - 320° 320° 6 kt METAR LFRD 232130Z AUTO 32006KT CAVOK 14/13 Q1024 NOSIG
23:00
V
15 °C 10 km+ - 330° 330° 4 kt METAR LFRD 232100Z AUTO 33004KT CAVOK 15/13 Q1024 NOSIG
22:30
V
15 °C 10 km+ - 350° 350° 5 kt METAR LFRD 232030Z AUTO 35005KT CAVOK 15/13 Q1024 NOSIG
22:00
V
16 °C 10 km+ - 340° 340° 6 kt METAR LFRD 232000Z AUTO 34006KT 9999 FEW033 16/13 Q1024 NOSIG
21:30
V
17 °C 10 km+ 3.300 ft 340° 340° 5 kt METAR LFRD 231930Z AUTO 34005KT 9999 OVC033 17/13 Q1024 NOSIG
21:00
V
17 °C 10 km+ 3.400 ft 330° 330° 7 kt METAR LFRD 231900Z AUTO 33007KT 9999 OVC034 17/14 Q1023 NOSIG
20:30
V
17 °C 10 km+ 3.500 ft 330° 330° 10 kt METAR LFRD 231830Z AUTO 33010KT 9999 OVC035 17/13 Q1023 NOSIG
20:00
V
18 °C 10 km+ 3.500 ft 340° 340° 9 kt METAR LFRD 231800Z AUTO 34009KT 9999 OVC035 18/13 Q1023 NOSIG
19:30
V
19 °C 9 km - 340° 340° 11 kt METAR LFRD 231730Z AUTO 34011KT 9000 FEW026 19/14 Q1023 NOSIG
19:00
V
19 °C 9 km 3.700 ft 330° 330° 10 kt METAR LFRD 231700Z AUTO 33010KT 9000 BKN037 19/12 Q1023
18:30
V
20 °C 9 km 3.700 ft 330° 330° 12 kt METAR LFRD 231630Z AUTO 33012KT 9000 BKN037 20/13 Q1023
18:00
V
20 °C 10 km+ 3.700 ft 320° 320° 10 kt METAR LFRD 231600Z AUTO 32010KT 280V350 9999 BKN037 20/13 Q1023
17:30
V
20 °C 10 km+ 3.800 ft 310° 310° 12 kt METAR LFRD 231530Z AUTO 31012KT 9999 BKN038 20/14 Q1024
17:00
V
19 °C 10 km+ 3.800 ft 310° 310° 11 kt METAR LFRD 231500Z AUTO 31011KT 9999 FEW020 BKN038 19/13 Q1023
16:30
V
20 °C 10 km+ 3.700 ft 290° 290° 11 kt METAR LFRD 231430Z AUTO 29011KT 9999 OVC037 20/12 Q1023
16:00
V
19 °C 10 km+ 3.500 ft 300° 300° 11 kt METAR LFRD 231400Z AUTO 30011KT 9999 FEW027 OVC035 19/12 Q1023
15:30
V
19 °C 10 km+ 3.700 ft 310° 310° 11 kt METAR LFRD 231330Z AUTO 31011KT 280V340 9999 FEW027 OVC037 19/13 Q1023
15:00
V
19 °C 10 km+ 3.500 ft 310° 310° 12 kt METAR LFRD 231300Z AUTO 31012KT 280V340 9999 FEW023 OVC035 19/13 Q1023
14:30
V
19 °C 10 km+ 3.500 ft 310° 310° 13 kt METAR LFRD 231230Z AUTO 31013KT 9999 FEW020 SCT028 OVC035 19/14 Q1023
14:00
V
19 °C 10 km+ 3.400 ft 310° 310° 12 kt METAR LFRD 231200Z AUTO 31012KT 9999 SCT027 OVC034 19/14 Q1023
13:30
M
18 °C 10 km+ 3.000 ft 300° 300° 10 kt METAR LFRD 231130Z AUTO 30010KT 9999 OVC030 18/13 Q1023
13:00
M
18 °C 10 km+ 2.800 ft 310° 310° 11 kt METAR LFRD 231100Z AUTO 31011KT 9999 BKN028 OVC034 18/13 Q1022
12:30
V
19 °C 10 km+ 3.800 ft 310° 310° 12 kt METAR LFRD 231030Z AUTO 31012KT 9999 FEW027 OVC038 19/13 Q1022
12:00
V
18 °C 10 km+ 3.600 ft 290° 290° 12 kt METAR LFRD 231000Z AUTO 29012KT 9999 FEW028 OVC036 18/13 Q1022
11:30
V
18 °C 10 km+ 3.400 ft 300° 300° 10 kt METAR LFRD 230930Z AUTO 30010KT 260V330 9999 FEW022 OVC034 18/14 Q1022
11:00
M
17 °C 10 km+ 2.900 ft 300° 300° 9 kt METAR LFRD 230900Z AUTO 30009KT 9999 FEW021 OVC029 17/14 Q1021
10:30
M
17 °C 10 km+ 2.100 ft 310° 310° 12 kt METAR LFRD 230830Z AUTO 31012KT 270V340 9999 BKN021 OVC033 17/14 Q1021
10:00
V
18 °C 10 km+ 3.400 ft 270° 270° 8 kt METAR LFRD 230800Z AUTO 27008KT 250V310 9999 FEW023 OVC034 18/14 Q1021
09:30
V
18 °C 10 km+ 3.500 ft 270° 270° 8 kt METAR LFRD 230730Z AUTO 27008KT 9999 OVC035 18/14 Q1021
09:00
V
18 °C 10 km+ 3.700 ft 270° 270° 10 kt METAR LFRD 230700Z AUTO 27010KT 9999 OVC037 18/13 Q1021
08:30
V
17 °C 10 km+ 3.800 ft 290° 290° 8 kt METAR LFRD 230630Z AUTO 29008KT 9999 SCT017 OVC038 17/15 Q1021
08:00
M
17 °C 10 km+ 1.400 ft 280° 280° 6 kt METAR LFRD 230600Z AUTO 28006KT 240V300 9999 BKN014 BKN019 OVC029 17/16 Q1020
07:30
M
17 °C 10 km+ 2.600 ft 290° 290° 6 kt METAR LFRD 230530Z AUTO 29006KT 9999 FEW019 OVC026 17/16 Q1020
07:00
M
17 °C 10 km+ 2.200 ft 290° 290° 5 kt METAR LFRD 230500Z AUTO 29005KT 9999 OVC022 17/16 Q1020 TEMPO BKN012
06:30
M
17 °C 10 km+ 2.200 ft 280° 280° 6 kt METAR LFRD 230430Z AUTO 28006KT 9999 FEW014 OVC022 17/16 Q1020 TEMPO BKN012
06:00
M
17 °C 6 km 1.100 ft 290° 290° 11 kt METAR LFRD 230400Z AUTO 29011KT 6000 -RA SCT004 OVC011 17/16 Q1020 BECMG BKN020
05:30
M
18 °C 10 km+ 1.200 ft 240° 240° 6 kt METAR LFRD 230330Z AUTO 24006KT 9999 OVC012 18/17 Q1019 BECMG BKN020
05:00
M
18 °C 10 km+ 1.600 ft 240° 240° 6 kt METAR LFRD 230300Z AUTO 24006KT 9999 BKN016 OVC024 18/17 Q1019 TEMPO 2000 RADZ OVC003
04:30
I
18 °C 10 km+ 500 ft 240° 240° 9 kt METAR LFRD 230230Z AUTO 24009KT 9999 BKN005 BKN011 OVC022 18/18 Q1019 TEMPO 2000 RADZ BECMG BKN020
04:00
L
18 °C 7 km 400 ft 250° 250° 7 kt METAR LFRD 230200Z AUTO 25007KT 7000 -DZ BKN004 OVC008 18/18 Q1019 TEMPO 2000 RADZ
03:30
L
18 °C 4,6 km 300 ft 250° 250° 8 kt METAR LFRD 230130Z AUTO 25008KT 220V280 4600 -RA BR OVC003 18/18 Q1020 TEMPO 2000 RADZ
03:00
I
19 °C 4,1 km 500 ft 240° 240° 7 kt METAR LFRD 230100Z AUTO 24007KT 4100 -RADZ BR OVC005 19/18 Q1019 TEMPO 2000 RADZ
02:30
I
19 °C 6 km 900 ft 240° 240° 7 kt METAR LFRD 230030Z AUTO 24007KT 6000 OVC009 19/18 Q1019 TEMPO 2000 RADZ OVC003
02:00
M
19 °C 10 km+ 1.000 ft 230° 230° 8 kt METAR LFRD 230000Z AUTO 23008KT 9999 OVC010 19/18 Q1019 TEMPO 2000 RADZ OVC003
01:30
M
19 °C 10 km+ 1.100 ft 230° 230° 9 kt METAR LFRD 222330Z AUTO 23009KT 9999 OVC011 19/18 Q1019 TEMPO 2000 RADZ OVC003
01:00
M
19 °C 10 km+ 1.000 ft 220° 220° 9 kt METAR LFRD 222300Z AUTO 22009KT 9999 OVC010 19/18 Q1019 TEMPO 4000 -RADZ
00:30
M
19 °C 10 km+ 1.100 ft 220° 220° 10 kt METAR LFRD 222230Z AUTO 22010KT 9999 OVC011 19/18 Q1019 TEMPO 4000 -RADZ OVC005
00:00
M
19 °C 10 km+ 1.000 ft 210° 210° 10 kt METAR LFRD 222200Z AUTO 21010KT 9999 BKN010 OVC014 19/18 Q1019 TEMPO 4000 -RADZ

22 luglio 2024

Tempo Codice Tempo meteorologico Temp. Vista Base nuvolosa Vento METAR/SPECI
23:30
M
19 °C 10 km+ 1.400 ft 220° 220° 12 kt METAR LFRD 222130Z AUTO 22012KT 9999 BKN014 OVC020 19/18 Q1019 TEMPO 4000 -RADZ OVC005
23:00
M
20 °C 10 km+ 1.600 ft 210° 210° 11 kt METAR LFRD 222100Z AUTO 21011KT 9999 BKN016 BKN024 OVC049 20/18 Q1019 TEMPO 4000 -RADZ OVC005
22:30
M
20 °C 10 km+ 2.300 ft 210° 210° 10 kt METAR LFRD 222030Z AUTO 21010KT 9999 SCT014 BKN023 BKN049 20/18 Q1019 TEMPO 4000 -RADZ OVC005
22:00
V
19 °C 10 km+ 4.200 ft 210° 210° 11 kt METAR LFRD 222000Z AUTO 21011KT 9999 FEW009 SCT032 BKN042 19/18 Q1019 TEMPO 4000 -RADZ OVC005
21:30
M
20 °C 10 km+ 1.900 ft 210° 210° 11 kt METAR LFRD 221930Z AUTO 21011KT 9999 BKN019 OVC026 20/18 Q1019 TEMPO 4000 -RADZ OVC005
21:00
M
20 °C 10 km+ 2.800 ft 210° 210° 10 kt METAR LFRD 221900Z AUTO 21010KT 9999 FEW015 BKN028 OVC037 20/18 Q1019 TEMPO 4000 -RADZ BECMG OVC012
20:30
M
20 °C 10 km+ 2.000 ft 200° 200° 11 kt METAR LFRD 221830Z AUTO 20011KT 9999 -RADZ FEW013 BKN020 OVC036 20/18 Q1019 TEMPO 4000 -RADZ BECMG OVC012
20:00
M
20 °C 10 km+ 1.500 ft 230° 230° 12 kt METAR LFRD 221800Z AUTO 23012KT 9999 BKN015 OVC022 20/18 Q1019 TEMPO 4000 -RADZ BECMG OVC012
19:30
M
21 °C 10 km+ 2.100 ft 220° 220° 13 kt METAR LFRD 221730Z AUTO 22013KT 9999 BKN021 OVC029 21/18 Q1019 TEMPO 4000 -RADZ BECMG OVC012
19:00
M
22 °C 10 km+ 2.300 ft 220° 220° 12 kt METAR LFRD 221700Z AUTO 22012KT 9999 BKN023 BKN035 OVC050 22/18 Q1019 TEMPO 34008KT BKN014
18:30
M
22 °C 10 km+ 2.300 ft 210° 210° 12 kt METAR LFRD 221630Z AUTO 21012KT 9999 OVC023 22/18 Q1019 TEMPO 34008KT BKN014
18:00
M
22 °C 10 km+ 2.600 ft 210° 210° 12 kt METAR LFRD 221600Z AUTO 21012KT 9999 BKN026 OVC033 22/17 Q1019 TEMPO 34008KT BKN014
17:30
V
22 °C 10 km+ 3.300 ft 220° 220° 13 kt METAR LFRD 221530Z AUTO 22013KT 9999 FEW011 OVC033 22/17 Q1019 TEMPO 34008KT BKN014
17:00
V
23 °C 10 km+ 3.900 ft 220° 220° 13 kt METAR LFRD 221500Z AUTO 22013KT 9999 FEW031 OVC039 23/17 Q1019 TEMPO 34008KT BKN014
16:30
V
23 °C 10 km+ 3.300 ft 230° 230° 11 kt METAR LFRD 221430Z AUTO 23011KT 9999 FEW011 BKN033 OVC040 23/17 Q1019 TEMPO 34008KT BKN014
16:00
V
25 °C 10 km+ 3.100 ft 220° 220° 13 kt METAR LFRD 221400Z AUTO 22013KT 190V250 9999 FEW008 BKN031 BKN040 25/17 Q1019 TEMPO 34008KT BKN014
15:30
V
24 °C 10 km+ 3.200 ft 200° 200° 12 kt METAR LFRD 221330Z AUTO 20012KT 170V230 9999 SCT025 BKN032 BKN038 24/18 Q1019 TEMPO 34008KT BKN014
15:00
V
23 °C 10 km+ 3.100 ft 200° 200° 13 kt METAR LFRD 221300Z AUTO 20013KT 9999 FEW019 SCT024 BKN031 23/19 Q1019 TEMPO BKN014
14:30
M
21 °C 10 km+ 1.500 ft 210° 210° 11 kt METAR LFRD 221230Z AUTO 21011KT 180V240 9999 BKN015 BKN028 OVC035 21/18 Q1019 TEMPO BKN014
14:00
M
20 °C 10 km+ 1.400 ft 200° 200° 13 kt METAR LFRD 221200Z AUTO 20013KT 9999 BKN014 BKN021 BKN029 20/17 Q1019 NOSIG
13:30
M
21 °C 10 km+ 1.800 ft 220° 220° 13 kt METAR LFRD 221130Z AUTO 22013KT 9999 OVC018 21/17 Q1019 TEMPO BKN014
13:00
M
21 °C 10 km+ 1.900 ft 220° 220° 12 kt METAR LFRD 221100Z AUTO 22012KT 9999 OVC019 21/17 Q1019 TEMPO BKN012
12:30
M
22 °C 10 km+ 1.800 ft 210° 210° 13 kt METAR LFRD 221030Z AUTO 21013KT 9999 BKN018 BKN032 OVC038 22/17 Q1019 TEMPO BKN012
12:00
M
21 °C 10 km+ 1.600 ft 220° 220° 13 kt METAR LFRD 221000Z AUTO 22013KT 9999 BKN016 OVC028 21/17 Q1019 TEMPO BKN012
11:30
V
20 °C 10 km+ 4.200 ft 220° 220° 13 kt METAR LFRD 220930Z AUTO 22013KT 190V250 9999 SCT017 SCT028 BKN042 20/16 Q1019 TEMPO BKN012
11:00
M
20 °C 10 km+ 1.600 ft 220° 220° 13 kt METAR LFRD 220900Z AUTO 22013KT 9999 BKN016 BKN050 OVC060 20/16 Q1019 TEMPO BKN012
10:30
M
19 °C 10 km+ 1.500 ft 220° 220° 13 kt METAR LFRD 220830Z AUTO 22013KT 9999 OVC015 19/16 Q1019 TEMPO BKN012
Segnala modifiche